sensor_id;sensor_type;location;lat;lon;timestamp;P1;durP1;ratioP1;P2;durP2;ratioP2
2750;SDS011;1383;48.362;10.908;2023-02-15T00:01:56;28.42;;;16.58;;
2750;SDS011;1383;48.362;10.908;2023-02-15T00:04:24;25.50;;;15.65;;
2750;SDS011;1383;48.362;10.908;2023-02-15T00:07:12;36.10;;;15.55;;
2750;SDS011;1383;48.362;10.908;2023-02-15T00:09:41;24.33;;;14.80;;
2750;SDS011;1383;48.362;10.908;2023-02-15T00:12:08;30.83;;;16.40;;
2750;SDS011;1383;48.362;10.908;2023-02-15T00:14:36;31.38;;;14.70;;
2750;SDS011;1383;48.362;10.908;2023-02-15T00:17:02;30.50;;;14.68;;
2750;SDS011;1383;48.362;10.908;2023-02-15T00:19:29;31.05;;;14.63;;
2750;SDS011;1383;48.362;10.908;2023-02-15T00:21:56;38.65;;;17.40;;
2750;SDS011;1383;48.362;10.908;2023-02-15T00:24:23;31.50;;;16.25;;
2750;SDS011;1383;48.362;10.908;2023-02-15T00:26:50;22.92;;;15.15;;
2750;SDS011;1383;48.362;10.908;2023-02-15T00:29:18;38.75;;;16.85;;
2750;SDS011;1383;48.362;10.908;2023-02-15T00:31:46;21.58;;;15.05;;
2750;SDS011;1383;48.362;10.908;2023-02-15T00:34:17;26.55;;;14.70;;
2750;SDS011;1383;48.362;10.908;2023-02-15T00:36:48;42.40;;;14.45;;
2750;SDS011;1383;48.362;10.908;2023-02-15T00:39:16;22.38;;;13.93;;
2750;SDS011;1383;48.362;10.908;2023-02-15T00:41:43;21.48;;;14.68;;
2750;SDS011;1383;48.362;10.908;2023-02-15T00:44:11;38.00;;;15.98;;
2750;SDS011;1383;48.362;10.908;2023-02-15T00:46:38;26.02;;;17.80;;
2750;SDS011;1383;48.362;10.908;2023-02-15T00:49:05;26.48;;;15.85;;
2750;SDS011;1383;48.362;10.908;2023-02-15T00:51:32;33.67;;;15.52;;
2750;SDS011;1383;48.362;10.908;2023-02-15T00:53:59;29.30;;;17.05;;
2750;SDS011;1383;48.362;10.908;2023-02-15T00:56:26;22.05;;;13.00;;
2750;SDS011;1383;48.362;10.908;2023-02-15T00:58:54;23.75;;;16.40;;
2750;SDS011;1383;48.362;10.908;2023-02-15T01:01:21;27.75;;;14.75;;
2750;SDS011;1383;48.362;10.908;2023-02-15T01:03:49;20.88;;;14.65;;
2750;SDS011;1383;48.362;10.908;2023-02-15T01:06:16;25.83;;;13.98;;
2750;SDS011;1383;48.362;10.908;2023-02-15T01:08:43;30.25;;;16.05;;
2750;SDS011;1383;48.362;10.908;2023-02-15T01:11:16;27.75;;;14.75;;
2750;SDS011;1383;48.362;10.908;2023-02-15T01:13:52;27.35;;;15.88;;
2750;SDS011;1383;48.362;10.908;2023-02-15T01:16:22;27.85;;;15.63;;
2750;SDS011;1383;48.362;10.908;2023-02-15T01:18:50;33.20;;;15.85;;
2750;SDS011;1383;48.362;10.908;2023-02-15T01:21:20;39.03;;;15.35;;
2750;SDS011;1383;48.362;10.908;2023-02-15T01:23:49;44.47;;;17.27;;
2750;SDS011;1383;48.362;10.908;2023-02-15T01:26:16;25.63;;;14.40;;
2750;SDS011;1383;48.362;10.908;2023-02-15T01:28:43;21.83;;;14.20;;
2750;SDS011;1383;48.362;10.908;2023-02-15T01:31:12;35.78;;;15.50;;
2750;SDS011;1383;48.362;10.908;2023-02-15T01:33:43;23.55;;;14.70;;
2750;SDS011;1383;48.362;10.908;2023-02-15T01:36:11;25.08;;;16.25;;
2750;SDS011;1383;48.362;10.908;2023-02-15T01:38:38;24.67;;;15.65;;
2750;SDS011;1383;48.362;10.908;2023-02-15T01:41:08;29.13;;;17.05;;
2750;SDS011;1383;48.362;10.908;2023-02-15T01:43:51;35.00;;;17.20;;
2750;SDS011;1383;48.362;10.908;2023-02-15T01:51:39;20.27;;;14.25;;
2750;SDS011;1383;48.362;10.908;2023-02-15T01:54:11;21.50;;;14.07;;
2750;SDS011;1383;48.362;10.908;2023-02-15T01:56:45;24.33;;;13.70;;
2750;SDS011;1383;48.362;10.908;2023-02-15T01:59:15;22.73;;;14.52;;
2750;SDS011;1383;48.362;10.908;2023-02-15T02:01:46;23.27;;;14.88;;
2750;SDS011;1383;48.362;10.908;2023-02-15T02:06:42;28.08;;;16.55;;
2750;SDS011;1383;48.362;10.908;2023-02-15T02:09:12;22.05;;;15.10;;
2750;SDS011;1383;48.362;10.908;2023-02-15T02:11:39;27.17;;;14.48;;
2750;SDS011;1383;48.362;10.908;2023-02-15T02:14:07;27.20;;;15.95;;
2750;SDS011;1383;48.362;10.908;2023-02-15T02:16:50;20.88;;;14.32;;
2750;SDS011;1383;48.362;10.908;2023-02-15T02:19:34;24.38;;;13.40;;
2750;SDS011;1383;48.362;10.908;2023-02-15T02:27:48;23.75;;;13.68;;
2750;SDS011;1383;48.362;10.908;2023-02-15T02:46:26;22.85;;;13.75;;
2750;SDS011;1383;48.362;10.908;2023-02-15T02:48:57;21.88;;;12.40;;
2750;SDS011;1383;48.362;10.908;2023-02-15T02:51:24;37.47;;;18.65;;
2750;SDS011;1383;48.362;10.908;2023-02-15T02:53:51;34.95;;;14.50;;
2750;SDS011;1383;48.362;10.908;2023-02-15T02:59:28;18.52;;;11.60;;
2750;SDS011;1383;48.362;10.908;2023-02-15T03:02:03;23.52;;;13.18;;
2750;SDS011;1383;48.362;10.908;2023-02-15T03:04:40;26.60;;;12.70;;
2750;SDS011;1383;48.362;10.908;2023-02-15T03:07:12;38.65;;;14.68;;
2750;SDS011;1383;48.362;10.908;2023-02-15T03:09:49;20.83;;;13.90;;
2750;SDS011;1383;48.362;10.908;2023-02-15T03:12:20;13.35;;;11.15;;
2750;SDS011;1383;48.362;10.908;2023-02-15T03:14:56;19.00;;;13.50;;
2750;SDS011;1383;48.362;10.908;2023-02-15T03:17:32;44.40;;;14.32;;
2750;SDS011;1383;48.362;10.908;2023-02-15T03:20:03;23.48;;;14.13;;
2750;SDS011;1383;48.362;10.908;2023-02-15T03:22:36;21.17;;;13.20;;
2750;SDS011;1383;48.362;10.908;2023-02-15T03:25:06;28.55;;;13.70;;
2750;SDS011;1383;48.362;10.908;2023-02-15T03:27:47;20.70;;;12.05;;
2750;SDS011;1383;48.362;10.908;2023-02-15T03:30:18;25.45;;;14.60;;
2750;SDS011;1383;48.362;10.908;2023-02-15T03:32:48;14.90;;;12.90;;
2750;SDS011;1383;48.362;10.908;2023-02-15T03:35:18;21.55;;;13.73;;
2750;SDS011;1383;48.362;10.908;2023-02-15T03:37:51;19.58;;;14.40;;
2750;SDS011;1383;48.362;10.908;2023-02-15T03:40:40;19.83;;;12.85;;
2750;SDS011;1383;48.362;10.908;2023-02-15T03:43:30;22.33;;;13.15;;
2750;SDS011;1383;48.362;10.908;2023-02-15T03:46:11;22.60;;;12.00;;
2750;SDS011;1383;48.362;10.908;2023-02-15T03:48:58;20.63;;;14.48;;
2750;SDS011;1383;48.362;10.908;2023-02-15T03:51:34;17.55;;;13.30;;
2750;SDS011;1383;48.362;10.908;2023-02-15T03:54:06;22.00;;;13.55;;
2750;SDS011;1383;48.362;10.908;2023-02-15T03:56:40;18.50;;;12.10;;
2750;SDS011;1383;48.362;10.908;2023-02-15T03:59:28;22.80;;;13.50;;
2750;SDS011;1383;48.362;10.908;2023-02-15T04:02:19;34.30;;;15.02;;
2750;SDS011;1383;48.362;10.908;2023-02-15T04:04:50;20.63;;;13.98;;
2750;SDS011;1383;48.362;10.908;2023-02-15T04:07:16;22.48;;;13.20;;
2750;SDS011;1383;48.362;10.908;2023-02-15T04:09:43;17.95;;;12.60;;
2750;SDS011;1383;48.362;10.908;2023-02-15T04:12:28;16.65;;;12.75;;
2750;SDS011;1383;48.362;10.908;2023-02-15T04:14:56;16.92;;;12.77;;
2750;SDS011;1383;48.362;10.908;2023-02-15T04:17:41;19.60;;;12.95;;
2750;SDS011;1383;48.362;10.908;2023-02-15T04:20:08;15.98;;;13.82;;
2750;SDS011;1383;48.362;10.908;2023-02-15T04:22:53;17.27;;;12.27;;
2750;SDS011;1383;48.362;10.908;2023-02-15T04:25:39;14.98;;;12.40;;
2750;SDS011;1383;48.362;10.908;2023-02-15T04:28:05;19.02;;;13.60;;
2750;SDS011;1383;48.362;10.908;2023-02-15T04:30:33;19.23;;;12.82;;
2750;SDS011;1383;48.362;10.908;2023-02-15T04:33:00;19.35;;;12.50;;
2750;SDS011;1383;48.362;10.908;2023-02-15T04:35:27;14.85;;;11.77;;
2750;SDS011;1383;48.362;10.908;2023-02-15T04:37:54;16.25;;;11.73;;
2750;SDS011;1383;48.362;10.908;2023-02-15T04:40:22;18.83;;;13.45;;
2750;SDS011;1383;48.362;10.908;2023-02-15T04:42:48;16.27;;;11.20;;
2750;SDS011;1383;48.362;10.908;2023-02-15T04:45:15;18.40;;;12.30;;
2750;SDS011;1383;48.362;10.908;2023-02-15T04:47:43;16.65;;;12.40;;
2750;SDS011;1383;48.362;10.908;2023-02-15T04:50:10;13.63;;;11.65;;
2750;SDS011;1383;48.362;10.908;2023-02-15T04:52:37;17.02;;;11.98;;
2750;SDS011;1383;48.362;10.908;2023-02-15T04:55:04;14.82;;;11.00;;
2750;SDS011;1383;48.362;10.908;2023-02-15T04:57:31;17.10;;;12.45;;
2750;SDS011;1383;48.362;10.908;2023-02-15T04:59:58;15.85;;;10.98;;
2750;SDS011;1383;48.362;10.908;2023-02-15T05:02:25;14.52;;;10.82;;
2750;SDS011;1383;48.362;10.908;2023-02-15T05:04:52;15.35;;;10.57;;
2750;SDS011;1383;48.362;10.908;2023-02-15T05:07:19;13.35;;;10.75;;
2750;SDS011;1383;48.362;10.908;2023-02-15T05:09:46;14.18;;;12.10;;
2750;SDS011;1383;48.362;10.908;2023-02-15T05:12:13;21.48;;;11.70;;
2750;SDS011;1383;48.362;10.908;2023-02-15T05:14:40;13.73;;;11.60;;
2750;SDS011;1383;48.362;10.908;2023-02-15T05:17:07;17.50;;;13.10;;
2750;SDS011;1383;48.362;10.908;2023-02-15T05:19:33;22.70;;;13.27;;
2750;SDS011;1383;48.362;10.908;2023-02-15T05:22:00;17.13;;;11.82;;
2750;SDS011;1383;48.362;10.908;2023-02-15T05:24:27;23.27;;;16.42;;
2750;SDS011;1383;48.362;10.908;2023-02-15T05:27:12;16.83;;;12.15;;
2750;SDS011;1383;48.362;10.908;2023-02-15T05:29:59;13.10;;;11.70;;
2750;SDS011;1383;48.362;10.908;2023-02-15T05:32:25;15.48;;;12.00;;
2750;SDS011;1383;48.362;10.908;2023-02-15T05:34:53;14.63;;;11.73;;
2750;SDS011;1383;48.362;10.908;2023-02-15T05:37:19;20.92;;;13.75;;
2750;SDS011;1383;48.362;10.908;2023-02-15T05:39:46;21.10;;;12.70;;
2750;SDS011;1383;48.362;10.908;2023-02-15T05:42:13;15.45;;;11.93;;
2750;SDS011;1383;48.362;10.908;2023-02-15T05:44:40;19.00;;;11.63;;
2750;SDS011;1383;48.362;10.908;2023-02-15T05:47:07;18.02;;;12.43;;
2750;SDS011;1383;48.362;10.908;2023-02-15T05:49:33;16.83;;;12.93;;
2750;SDS011;1383;48.362;10.908;2023-02-15T05:52:00;17.13;;;12.43;;
2750;SDS011;1383;48.362;10.908;2023-02-15T05:54:28;14.43;;;11.32;;
2750;SDS011;1383;48.362;10.908;2023-02-15T05:56:55;18.75;;;11.52;;
2750;SDS011;1383;48.362;10.908;2023-02-15T05:59:22;16.02;;;11.93;;
2750;SDS011;1383;48.362;10.908;2023-02-15T06:01:49;16.67;;;11.40;;
2750;SDS011;1383;48.362;10.908;2023-02-15T06:04:16;17.95;;;12.68;;
2750;SDS011;1383;48.362;10.908;2023-02-15T06:06:43;17.80;;;14.02;;
2750;SDS011;1383;48.362;10.908;2023-02-15T06:09:11;17.60;;;11.95;;
2750;SDS011;1383;48.362;10.908;2023-02-15T06:11:39;19.35;;;13.32;;
2750;SDS011;1383;48.362;10.908;2023-02-15T06:14:05;18.35;;;13.10;;
2750;SDS011;1383;48.362;10.908;2023-02-15T06:16:32;17.40;;;12.93;;
2750;SDS011;1383;48.362;10.908;2023-02-15T06:18:59;14.45;;;10.85;;
2750;SDS011;1383;48.362;10.908;2023-02-15T06:21:27;17.23;;;12.32;;
2750;SDS011;1383;48.362;10.908;2023-02-15T06:23:54;13.73;;;12.05;;
2750;SDS011;1383;48.362;10.908;2023-02-15T06:26:21;19.35;;;12.40;;
2750;SDS011;1383;48.362;10.908;2023-02-15T06:28:48;17.52;;;11.50;;
2750;SDS011;1383;48.362;10.908;2023-02-15T06:31:15;17.13;;;14.10;;
2750;SDS011;1383;48.362;10.908;2023-02-15T06:33:41;18.80;;;13.45;;
2750;SDS011;1383;48.362;10.908;2023-02-15T06:36:08;18.58;;;13.27;;
2750;SDS011;1383;48.362;10.908;2023-02-15T06:38:35;17.90;;;12.43;;
2750;SDS011;1383;48.362;10.908;2023-02-15T06:41:02;18.92;;;13.77;;
2750;SDS011;1383;48.362;10.908;2023-02-15T06:43:28;18.05;;;13.82;;
2750;SDS011;1383;48.362;10.908;2023-02-15T06:45:55;20.65;;;12.10;;
2750;SDS011;1383;48.362;10.908;2023-02-15T06:48:22;18.63;;;13.13;;
2750;SDS011;1383;48.362;10.908;2023-02-15T06:50:48;17.70;;;12.90;;
2750;SDS011;1383;48.362;10.908;2023-02-15T06:53:15;17.42;;;12.82;;
2750;SDS011;1383;48.362;10.908;2023-02-15T06:55:42;15.93;;;11.98;;
2750;SDS011;1383;48.362;10.908;2023-02-15T06:58:09;17.13;;;11.52;;
2750;SDS011;1383;48.362;10.908;2023-02-15T07:00:35;17.92;;;12.98;;
2750;SDS011;1383;48.362;10.908;2023-02-15T07:03:02;19.65;;;13.20;;
2750;SDS011;1383;48.362;10.908;2023-02-15T07:05:32;17.75;;;12.20;;
2750;SDS011;1383;48.362;10.908;2023-02-15T07:08:00;15.00;;;11.40;;
2750;SDS011;1383;48.362;10.908;2023-02-15T07:10:27;15.27;;;12.48;;
2750;SDS011;1383;48.362;10.908;2023-02-15T07:12:54;18.00;;;14.05;;
2750;SDS011;1383;48.362;10.908;2023-02-15T07:15:21;15.38;;;13.23;;
2750;SDS011;1383;48.362;10.908;2023-02-15T07:17:48;17.52;;;11.80;;
2750;SDS011;1383;48.362;10.908;2023-02-15T07:20:17;16.27;;;12.23;;
2750;SDS011;1383;48.362;10.908;2023-02-15T07:22:48;13.75;;;12.10;;
2750;SDS011;1383;48.362;10.908;2023-02-15T07:25:15;16.33;;;12.77;;
2750;SDS011;1383;48.362;10.908;2023-02-15T07:27:42;17.70;;;13.65;;
2750;SDS011;1383;48.362;10.908;2023-02-15T07:30:11;22.63;;;15.90;;
2750;SDS011;1383;48.362;10.908;2023-02-15T07:32:40;18.35;;;12.23;;
2750;SDS011;1383;48.362;10.908;2023-02-15T07:35:30;15.18;;;11.57;;
2750;SDS011;1383;48.362;10.908;2023-02-15T07:37:58;15.15;;;11.65;;
2750;SDS011;1383;48.362;10.908;2023-02-15T07:40:27;16.45;;;12.60;;
2750;SDS011;1383;48.362;10.908;2023-02-15T07:42:57;14.63;;;10.55;;
2750;SDS011;1383;48.362;10.908;2023-02-15T07:45:25;16.05;;;12.25;;
2750;SDS011;1383;48.362;10.908;2023-02-15T07:47:52;13.95;;;10.95;;
2750;SDS011;1383;48.362;10.908;2023-02-15T07:50:18;15.50;;;11.52;;
2750;SDS011;1383;48.362;10.908;2023-02-15T07:52:45;13.00;;;10.15;;
2750;SDS011;1383;48.362;10.908;2023-02-15T07:55:12;14.98;;;12.00;;
2750;SDS011;1383;48.362;10.908;2023-02-15T07:57:42;16.60;;;12.68;;
2750;SDS011;1383;48.362;10.908;2023-02-15T08:00:11;13.70;;;10.98;;
2750;SDS011;1383;48.362;10.908;2023-02-15T08:02:39;16.45;;;12.98;;
2750;SDS011;1383;48.362;10.908;2023-02-15T08:05:06;17.48;;;13.38;;
2750;SDS011;1383;48.362;10.908;2023-02-15T08:07:33;15.95;;;13.10;;
2750;SDS011;1383;48.362;10.908;2023-02-15T08:10:00;12.32;;;11.02;;
2750;SDS011;1383;48.362;10.908;2023-02-15T08:12:26;13.70;;;11.57;;
2750;SDS011;1383;48.362;10.908;2023-02-15T08:14:53;21.10;;;11.27;;
2750;SDS011;1383;48.362;10.908;2023-02-15T08:17:20;14.43;;;11.00;;
2750;SDS011;1383;48.362;10.908;2023-02-15T08:19:47;13.20;;;11.23;;
2750;SDS011;1383;48.362;10.908;2023-02-15T08:22:14;13.32;;;11.05;;
2750;SDS011;1383;48.362;10.908;2023-02-15T08:24:40;11.45;;;9.65;;
2750;SDS011;1383;48.362;10.908;2023-02-15T08:27:08;13.07;;;10.88;;
2750;SDS011;1383;48.362;10.908;2023-02-15T08:29:36;14.15;;;11.60;;
2750;SDS011;1383;48.362;10.908;2023-02-15T08:32:06;12.00;;;10.77;;
2750;SDS011;1383;48.362;10.908;2023-02-15T08:34:39;15.55;;;12.45;;
2750;SDS011;1383;48.362;10.908;2023-02-15T08:37:07;18.02;;;12.50;;
2750;SDS011;1383;48.362;10.908;2023-02-15T08:39:34;18.90;;;12.75;;
2750;SDS011;1383;48.362;10.908;2023-02-15T08:42:01;11.40;;;8.95;;
2750;SDS011;1383;48.362;10.908;2023-02-15T08:44:28;13.80;;;12.40;;
2750;SDS011;1383;48.362;10.908;2023-02-15T08:46:55;14.15;;;12.65;;
2750;SDS011;1383;48.362;10.908;2023-02-15T08:49:28;17.02;;;12.40;;
2750;SDS011;1383;48.362;10.908;2023-02-15T08:51:55;17.92;;;12.98;;
2750;SDS011;1383;48.362;10.908;2023-02-15T08:54:21;16.60;;;13.15;;
2750;SDS011;1383;48.362;10.908;2023-02-15T08:56:48;13.15;;;11.48;;
2750;SDS011;1383;48.362;10.908;2023-02-15T08:59:16;20.73;;;16.85;;
2750;SDS011;1383;48.362;10.908;2023-02-15T09:01:48;16.10;;;12.90;;
2750;SDS011;1383;48.362;10.908;2023-02-15T09:04:16;18.90;;;12.75;;
2750;SDS011;1383;48.362;10.908;2023-02-15T09:06:44;16.33;;;11.38;;
2750;SDS011;1383;48.362;10.908;2023-02-15T09:09:14;17.17;;;11.75;;
2750;SDS011;1383;48.362;10.908;2023-02-15T09:11:43;19.02;;;14.35;;
2750;SDS011;1383;48.362;10.908;2023-02-15T09:14:13;17.23;;;13.32;;
2750;SDS011;1383;48.362;10.908;2023-02-15T09:16:42;16.63;;;12.38;;
2750;SDS011;1383;48.362;10.908;2023-02-15T09:19:15;16.45;;;11.95;;
2750;SDS011;1383;48.362;10.908;2023-02-15T09:21:44;14.73;;;12.25;;
2750;SDS011;1383;48.362;10.908;2023-02-15T09:24:12;14.88;;;12.55;;
2750;SDS011;1383;48.362;10.908;2023-02-15T09:26:41;13.70;;;11.38;;
2750;SDS011;1383;48.362;10.908;2023-02-15T09:29:10;14.70;;;11.70;;
2750;SDS011;1383;48.362;10.908;2023-02-15T09:31:39;13.63;;;12.20;;
2750;SDS011;1383;48.362;10.908;2023-02-15T09:34:11;14.30;;;11.73;;
2750;SDS011;1383;48.362;10.908;2023-02-15T09:36:39;14.30;;;12.05;;
2750;SDS011;1383;48.362;10.908;2023-02-15T09:39:08;17.40;;;13.20;;
2750;SDS011;1383;48.362;10.908;2023-02-15T09:50:00;16.88;;;13.07;;
2750;SDS011;1383;48.362;10.908;2023-02-15T10:01:29;17.63;;;13.18;;
2750;SDS011;1383;48.362;10.908;2023-02-15T10:06:39;19.20;;;14.02;;
2750;SDS011;1383;48.362;10.908;2023-02-15T10:09:14;15.40;;;13.30;;
2750;SDS011;1383;48.362;10.908;2023-02-15T10:12:02;15.15;;;13.40;;
2750;SDS011;1383;48.362;10.908;2023-02-15T10:23:16;19.50;;;14.40;;
2750;SDS011;1383;48.362;10.908;2023-02-15T10:25:51;15.82;;;13.75;;
2750;SDS011;1383;48.362;10.908;2023-02-15T10:28:53;13.55;;;12.07;;
2750;SDS011;1383;48.362;10.908;2023-02-15T10:31:28;15.90;;;13.23;;
2750;SDS011;1383;48.362;10.908;2023-02-15T10:34:01;14.38;;;12.38;;
2750;SDS011;1383;48.362;10.908;2023-02-15T10:39:14;15.60;;;12.07;;
2750;SDS011;1383;48.362;10.908;2023-02-15T10:41:57;17.85;;;13.35;;
2750;SDS011;1383;48.362;10.908;2023-02-15T10:55:19;19.48;;;15.00;;
2750;SDS011;1383;48.362;10.908;2023-02-15T11:03:36;19.17;;;14.88;;
2750;SDS011;1383;48.362;10.908;2023-02-15T11:06:14;16.50;;;14.77;;
2750;SDS011;1383;48.362;10.908;2023-02-15T11:08:50;16.80;;;14.10;;
2750;SDS011;1383;48.362;10.908;2023-02-15T11:11:36;17.35;;;14.93;;
2750;SDS011;1383;48.362;10.908;2023-02-15T11:17:01;18.70;;;14.38;;
2750;SDS011;1383;48.362;10.908;2023-02-15T11:22:33;19.63;;;15.05;;
2750;SDS011;1383;48.362;10.908;2023-02-15T11:25:01;19.77;;;15.27;;
2750;SDS011;1383;48.362;10.908;2023-02-15T11:27:40;22.63;;;17.50;;
2750;SDS011;1383;48.362;10.908;2023-02-15T11:30:21;22.77;;;16.00;;
2750;SDS011;1383;48.362;10.908;2023-02-15T11:32:55;21.67;;;16.20;;
2750;SDS011;1383;48.362;10.908;2023-02-15T11:35:31;20.92;;;15.40;;
2750;SDS011;1383;48.362;10.908;2023-02-15T11:38:06;18.00;;;13.88;;
2750;SDS011;1383;48.362;10.908;2023-02-15T11:40:44;18.23;;;15.95;;
2750;SDS011;1383;48.362;10.908;2023-02-15T11:46:33;17.10;;;15.10;;
2750;SDS011;1383;48.362;10.908;2023-02-15T11:49:00;24.13;;;16.30;;
2750;SDS011;1383;48.362;10.908;2023-02-15T11:51:26;22.02;;;17.38;;
2750;SDS011;1383;48.362;10.908;2023-02-15T11:53:55;19.15;;;17.13;;
2750;SDS011;1383;48.362;10.908;2023-02-15T11:56:23;21.38;;;17.42;;
2750;SDS011;1383;48.362;10.908;2023-02-15T12:09:36;24.45;;;17.30;;
2750;SDS011;1383;48.362;10.908;2023-02-15T12:12:27;19.73;;;15.23;;
2750;SDS011;1383;48.362;10.908;2023-02-15T12:15:00;23.05;;;16.40;;
2750;SDS011;1383;48.362;10.908;2023-02-15T12:17:29;18.80;;;14.45;;
2750;SDS011;1383;48.362;10.908;2023-02-15T12:20:00;22.45;;;18.88;;
2750;SDS011;1383;48.362;10.908;2023-02-15T12:22:30;19.17;;;16.90;;
2750;SDS011;1383;48.362;10.908;2023-02-15T12:24:59;28.13;;;20.58;;
2750;SDS011;1383;48.362;10.908;2023-02-15T12:27:33;19.55;;;17.17;;
2750;SDS011;1383;48.362;10.908;2023-02-15T12:30:04;18.10;;;16.08;;
2750;SDS011;1383;48.362;10.908;2023-02-15T12:32:46;28.10;;;18.73;;
2750;SDS011;1383;48.362;10.908;2023-02-15T12:35:23;19.20;;;16.13;;
2750;SDS011;1383;48.362;10.908;2023-02-15T12:38:01;19.25;;;15.57;;
2750;SDS011;1383;48.362;10.908;2023-02-15T12:40:29;23.35;;;16.65;;
2750;SDS011;1383;48.362;10.908;2023-02-15T12:42:57;22.63;;;15.93;;
2750;SDS011;1383;48.362;10.908;2023-02-15T12:48:17;21.00;;;16.23;;
2750;SDS011;1383;48.362;10.908;2023-02-15T12:50:47;24.90;;;15.73;;
2750;SDS011;1383;48.362;10.908;2023-02-15T12:53:21;17.80;;;14.70;;
2750;SDS011;1383;48.362;10.908;2023-02-15T12:56:03;25.08;;;18.25;;
2750;SDS011;1383;48.362;10.908;2023-02-15T12:58:33;18.20;;;14.98;;
2750;SDS011;1383;48.362;10.908;2023-02-15T13:01:03;23.40;;;16.63;;
2750;SDS011;1383;48.362;10.908;2023-02-15T13:06:26;17.67;;;15.35;;
2750;SDS011;1383;48.362;10.908;2023-02-15T13:08:55;19.55;;;15.30;;
2750;SDS011;1383;48.362;10.908;2023-02-15T13:11:26;17.92;;;15.15;;
2750;SDS011;1383;48.362;10.908;2023-02-15T13:14:01;21.02;;;15.93;;
2750;SDS011;1383;48.362;10.908;2023-02-15T13:16:46;16.83;;;14.93;;
2750;SDS011;1383;48.362;10.908;2023-02-15T13:19:16;20.50;;;15.65;;
2750;SDS011;1383;48.362;10.908;2023-02-15T13:21:57;19.42;;;15.80;;
2750;SDS011;1383;48.362;10.908;2023-02-15T13:24:29;16.40;;;14.68;;
2750;SDS011;1383;48.362;10.908;2023-02-15T13:27:23;18.63;;;15.88;;
2750;SDS011;1383;48.362;10.908;2023-02-15T13:29:57;19.90;;;15.52;;
2750;SDS011;1383;48.362;10.908;2023-02-15T13:32:30;16.33;;;14.63;;
2750;SDS011;1383;48.362;10.908;2023-02-15T13:35:03;17.85;;;15.95;;
2750;SDS011;1383;48.362;10.908;2023-02-15T13:37:50;24.08;;;16.45;;
2750;SDS011;1383;48.362;10.908;2023-02-15T13:45:59;18.65;;;16.13;;
2750;SDS011;1383;48.362;10.908;2023-02-15T13:51:35;24.83;;;17.40;;
2750;SDS011;1383;48.362;10.908;2023-02-15T13:57:14;23.85;;;18.13;;
2750;SDS011;1383;48.362;10.908;2023-02-15T14:00:11;30.42;;;19.17;;
2750;SDS011;1383;48.362;10.908;2023-02-15T14:05:57;24.75;;;18.10;;
2750;SDS011;1383;48.362;10.908;2023-02-15T14:11:16;41.75;;;22.40;;
2750;SDS011;1383;48.362;10.908;2023-02-15T14:16:31;58.55;;;24.08;;
2750;SDS011;1383;48.362;10.908;2023-02-15T14:22:55;28.17;;;19.52;;
2750;SDS011;1383;48.362;10.908;2023-02-15T14:28:09;25.27;;;19.13;;
2750;SDS011;1383;48.362;10.908;2023-02-15T14:30:43;19.83;;;17.77;;
2750;SDS011;1383;48.362;10.908;2023-02-15T14:35:40;20.23;;;17.80;;
2750;SDS011;1383;48.362;10.908;2023-02-15T14:38:17;30.73;;;20.48;;
2750;SDS011;1383;48.362;10.908;2023-02-15T14:40:57;27.05;;;19.83;;
2750;SDS011;1383;48.362;10.908;2023-02-15T14:43:54;19.48;;;17.38;;
2750;SDS011;1383;48.362;10.908;2023-02-15T14:46:41;19.90;;;17.20;;
2750;SDS011;1383;48.362;10.908;2023-02-15T14:49:12;23.98;;;17.20;;
2750;SDS011;1383;48.362;10.908;2023-02-15T14:54:10;23.73;;;18.92;;
2750;SDS011;1383;48.362;10.908;2023-02-15T15:05:24;27.70;;;19.40;;
2750;SDS011;1383;48.362;10.908;2023-02-15T15:08:21;24.55;;;19.88;;
2750;SDS011;1383;48.362;10.908;2023-02-15T15:10:53;22.70;;;17.48;;
2750;SDS011;1383;48.362;10.908;2023-02-15T15:18:50;27.90;;;19.45;;
2750;SDS011;1383;48.362;10.908;2023-02-15T15:32:42;25.98;;;19.52;;
2750;SDS011;1383;48.362;10.908;2023-02-15T15:49:31;26.42;;;19.92;;
2750;SDS011;1383;48.362;10.908;2023-02-15T15:52:11;24.05;;;20.75;;
2750;SDS011;1383;48.362;10.908;2023-02-15T15:54:43;24.88;;;20.42;;
2750;SDS011;1383;48.362;10.908;2023-02-15T15:57:19;25.35;;;20.15;;
2750;SDS011;1383;48.362;10.908;2023-02-15T16:00:04;27.92;;;21.65;;
2750;SDS011;1383;48.362;10.908;2023-02-15T16:02:51;26.15;;;21.30;;
2750;SDS011;1383;48.362;10.908;2023-02-15T16:05:19;33.17;;;20.90;;
2750;SDS011;1383;48.362;10.908;2023-02-15T16:07:46;24.88;;;20.65;;
2750;SDS011;1383;48.362;10.908;2023-02-15T16:10:35;35.10;;;24.08;;
2750;SDS011;1383;48.362;10.908;2023-02-15T16:13:04;29.48;;;23.85;;
2750;SDS011;1383;48.362;10.908;2023-02-15T16:18:19;27.55;;;22.13;;
2750;SDS011;1383;48.362;10.908;2023-02-15T16:20:54;31.30;;;23.90;;
2750;SDS011;1383;48.362;10.908;2023-02-15T16:23:42;38.28;;;25.40;;
2750;SDS011;1383;48.362;10.908;2023-02-15T16:26:35;27.23;;;21.73;;
2750;SDS011;1383;48.362;10.908;2023-02-15T16:29:29;35.50;;;24.95;;
2750;SDS011;1383;48.362;10.908;2023-02-15T16:34:30;29.48;;;23.50;;
2750;SDS011;1383;48.362;10.908;2023-02-15T16:37:14;34.05;;;24.38;;
2750;SDS011;1383;48.362;10.908;2023-02-15T16:39:43;34.30;;;25.27;;
2750;SDS011;1383;48.362;10.908;2023-02-15T16:42:11;33.85;;;24.02;;
2750;SDS011;1383;48.362;10.908;2023-02-15T16:44:40;33.25;;;26.05;;
2750;SDS011;1383;48.362;10.908;2023-02-15T16:47:13;30.10;;;22.70;;
2750;SDS011;1383;48.362;10.908;2023-02-15T16:49:50;35.28;;;26.75;;
2750;SDS011;1383;48.362;10.908;2023-02-15T16:52:23;33.35;;;24.60;;
2750;SDS011;1383;48.362;10.908;2023-02-15T16:54:54;34.28;;;25.50;;
2750;SDS011;1383;48.362;10.908;2023-02-15T16:57:30;33.92;;;23.95;;
2750;SDS011;1383;48.362;10.908;2023-02-15T17:00:03;31.42;;;24.23;;
2750;SDS011;1383;48.362;10.908;2023-02-15T17:02:39;31.52;;;24.80;;
2750;SDS011;1383;48.362;10.908;2023-02-15T17:05:22;29.02;;;24.73;;
2750;SDS011;1383;48.362;10.908;2023-02-15T17:07:50;34.53;;;23.02;;
2750;SDS011;1383;48.362;10.908;2023-02-15T17:10:37;27.90;;;23.33;;
2750;SDS011;1383;48.362;10.908;2023-02-15T17:13:11;30.13;;;23.20;;
2750;SDS011;1383;48.362;10.908;2023-02-15T17:15:40;31.23;;;24.65;;
2750;SDS011;1383;48.362;10.908;2023-02-15T17:20:48;33.03;;;25.27;;
2750;SDS011;1383;48.362;10.908;2023-02-15T17:25:57;32.70;;;24.13;;
2750;SDS011;1383;48.362;10.908;2023-02-15T17:28:27;34.80;;;26.10;;
2750;SDS011;1383;48.362;10.908;2023-02-15T17:30:57;34.80;;;26.08;;
2750;SDS011;1383;48.362;10.908;2023-02-15T17:33:26;34.28;;;26.38;;
2750;SDS011;1383;48.362;10.908;2023-02-15T17:36:03;35.28;;;26.52;;
2750;SDS011;1383;48.362;10.908;2023-02-15T17:38:35;32.40;;;24.20;;
2750;SDS011;1383;48.362;10.908;2023-02-15T17:41:03;33.33;;;22.77;;
2750;SDS011;1383;48.362;10.908;2023-02-15T17:43:30;30.50;;;23.92;;
2750;SDS011;1383;48.362;10.908;2023-02-15T17:45:57;35.85;;;25.80;;
2750;SDS011;1383;48.362;10.908;2023-02-15T17:48:31;32.40;;;23.83;;
2750;SDS011;1383;48.362;10.908;2023-02-15T17:51:01;30.55;;;24.95;;
2750;SDS011;1383;48.362;10.908;2023-02-15T17:53:29;33.72;;;25.88;;
2750;SDS011;1383;48.362;10.908;2023-02-15T17:55:57;35.95;;;24.80;;
2750;SDS011;1383;48.362;10.908;2023-02-15T17:58:24;30.90;;;23.73;;
2750;SDS011;1383;48.362;10.908;2023-02-15T18:00:52;34.83;;;24.10;;
2750;SDS011;1383;48.362;10.908;2023-02-15T18:06:33;31.95;;;24.45;;
2750;SDS011;1383;48.362;10.908;2023-02-15T18:09:20;37.58;;;26.00;;
2750;SDS011;1383;48.362;10.908;2023-02-15T18:14:50;35.25;;;24.75;;
2750;SDS011;1383;48.362;10.908;2023-02-15T18:17:21;35.88;;;26.63;;